Time;durP1;ratioP1;P1;durP2;ratioP2;P2;SDS_P1;SDS_P2;PMS_P1;PMS_P2;Temp;Humidity;BMP_temperature;BMP_pressure;BME280_temperature;BME280_humidity;BME280_pressure;Samples;Min_cycle;Max_cycle;Signal;HPM_P1;HPM_P2
2023/11/30 00:01:53;;;;;;;5.63;2.43;;;;;;;-145.69;60.12;52361.22;5075220;28;20206;-80
2023/11/30 00:04:20;;;;;;;4.50;3.10;;;;;;;-145.69;60.31;52400.81;5075438;28;20562;-80
2023/11/30 00:06:47;;;;;;;6.57;2.43;;;;;;;-145.69;60.60;52396.84;5075174;28;20230;-81
2023/11/30 00:09:13;;;;;;;7.27;2.90;;;;;;;-145.69;59.78;52388.94;5075028;28;20238;-80
2023/11/30 00:11:40;;;;;;;6.27;3.00;;;;;;;-145.69;60.26;52424.59;5075428;28;20206;-80
2023/11/30 00:14:06;;;;;;;6.83;2.90;;;;;;;-145.69;60.15;52377.06;5074933;28;20225;-80
2023/11/30 00:16:33;;;;;;;8.60;3.40;;;;;;;-145.69;60.02;52400.81;5075165;28;20206;-80
2023/11/30 00:18:59;;;;;;;4.93;3.30;;;;;;;-145.69;59.66;52394.88;5075045;28;20688;-80
2023/11/30 00:21:27;;;;;;;4.37;3.00;;;;;;;-145.69;59.79;52412.69;5074714;28;20645;-80
2023/11/30 00:23:53;;;;;;;6.87;2.87;;;;;;;-145.69;59.74;52394.88;5075152;28;20203;-80
2023/11/30 00:26:20;;;;;;;7.37;3.10;;;;;;;-145.69;59.47;52377.06;5074963;28;20214;-81
2023/11/30 00:28:46;;;;;;;4.93;2.27;;;;;;;-145.69;59.28;52392.91;5074301;28;20530;-80
2023/11/30 00:31:13;;;;;;;4.80;2.63;;;;;;;-145.69;59.21;52373.09;5074558;28;20210;-80
2023/11/30 00:33:39;;;;;;;4.00;2.77;;;;;;;-145.69;59.58;52426.56;5074339;28;20210;-81
2023/11/30 00:36:08;;;;;;;4.03;2.43;;;;;;;-145.69;59.41;52406.75;5074811;28;20210;-80
2023/11/30 00:38:36;;;;;;;5.23;2.40;;;;;;;-145.69;59.39;52367.16;5074893;28;20203;-80
2023/11/30 00:41:02;;;;;;;5.87;2.57;;;;;;;-145.69;59.35;52390.91;5074609;28;20578;-80
2023/11/30 00:43:29;;;;;;;5.23;2.40;;;;;;;-145.69;59.06;52422.59;5074460;28;20222;-81
2023/11/30 00:45:55;;;;;;;8.77;2.77;;;;;;;-145.69;59.49;52390.91;5074622;28;20214;-80
2023/11/30 00:48:22;;;;;;;4.30;2.10;;;;;;;-145.69;58.91;52390.91;5074639;28;20203;-80
2023/11/30 00:50:48;;;;;;;3.57;2.20;;;;;;;-145.69;58.74;52388.94;5074250;28;20209;-80
2023/11/30 00:53:15;;;;;;;4.30;2.40;;;;;;;-145.69;57.87;52408.75;5074542;28;20205;-81
2023/11/30 00:55:42;;;;;;;3.83;2.30;;;;;;;-145.69;58.88;52333.47;5074419;28;20227;-80
2023/11/30 00:58:09;;;;;;;4.47;2.10;;;;;;;-145.69;58.97;52394.88;5061064;28;20200;-81
2023/11/30 01:00:35;;;;;;;3.33;2.10;;;;;;;-145.69;59.12;52430.53;5072204;28;20206;-81
2023/11/30 01:03:02;;;;;;;5.10;2.53;;;;;;;-145.69;58.94;52373.09;5074127;28;20209;-81
2023/11/30 01:05:28;;;;;;;3.57;2.00;;;;;;;-145.69;58.98;52400.81;5073642;28;20205;-80
2023/11/30 01:07:55;;;;;;;4.27;2.17;;;;;;;-145.69;58.88;52377.06;5073967;28;20238;-81
2023/11/30 01:10:21;;;;;;;4.50;2.07;;;;;;;-145.69;59.11;52392.91;5074249;28;20202;-81
2023/11/30 01:12:49;;;;;;;7.43;2.23;;;;;;;-145.69;59.15;52388.94;5074078;28;20198;-81
2023/11/30 01:15:15;;;;;;;3.60;2.00;;;;;;;-145.69;59.29;52398.84;5069203;28;20222;-81
2023/11/30 01:17:42;;;;;;;6.60;1.93;;;;;;;-145.69;59.21;52404.78;5073347;28;20206;-81
2023/11/30 01:20:10;;;;;;;3.00;2.20;;;;;;;-145.69;59.41;52406.75;5073672;28;20206;-81
2023/11/30 01:22:37;;;;;;;6.70;2.00;;;;;;;-145.69;58.96;52339.44;5073732;28;20203;-81
2023/11/30 01:25:04;;;;;;;3.03;2.10;;;;;;;-145.69;58.95;52381.00;5073892;28;20211;-81
2023/11/30 01:27:30;;;;;;;5.10;2.20;;;;;;;-145.69;59.18;52402.78;5073661;28;20203;-81
2023/11/30 01:29:58;;;;;;;5.13;2.00;;;;;;;-145.69;58.68;52383.00;5073632;28;20218;-81
2023/11/30 01:32:24;;;;;;;4.67;2.33;;;;;;;-145.69;59.18;52381.00;5073582;28;20666;-81
2023/11/30 01:34:51;;;;;;;3.70;2.27;;;;;;;-145.69;59.06;52404.78;5073673;28;20683;-81
2023/11/30 01:37:17;;;;;;;3.43;2.10;;;;;;;-145.69;59.06;52392.91;5073892;28;20763;-81
2023/11/30 01:39:44;;;;;;;3.77;2.33;;;;;;;-145.69;59.28;52390.91;5074077;28;20218;-81
2023/11/30 01:42:10;;;;;;;3.25;2.28;;;;;;;-145.69;59.64;52394.88;5073595;28;20442;-81
2023/11/30 01:44:37;;;;;;;6.67;2.47;;;;;;;-145.69;59.47;52388.94;5075522;28;20205;-81
2023/11/30 01:47:05;;;;;;;3.67;2.27;;;;;;;-145.69;59.38;52408.75;5074850;28;20209;-80
2023/11/30 01:49:32;;;;;;;4.67;2.90;;;;;;;-145.69;59.08;52424.59;5073302;28;20234;-81
2023/11/30 01:51:59;;;;;;;4.93;2.70;;;;;;;-145.69;58.96;52377.06;5074008;28;20209;-80
2023/11/30 01:54:26;;;;;;;4.50;2.60;;;;;;;-145.69;59.06;52384.97;5073852;28;20230;-80
2023/11/30 01:56:53;;;;;;;4.37;2.60;;;;;;;-145.69;59.14;52369.13;5073684;28;20206;-81
2023/11/30 01:59:20;;;;;;;4.20;2.60;;;;;;;-145.69;58.76;52363.19;5073391;28;20195;-80
2023/11/30 02:01:46;;;;;;;5.67;2.90;;;;;;;-145.69;59.10;52392.91;5073357;28;20206;-80
2023/11/30 02:04:16;;;;;;;3.17;2.23;;;;;;;-145.69;59.02;52396.84;5073467;28;20234;-80
2023/11/30 02:06:47;;;;;;;5.37;2.53;;;;;;;-145.69;58.96;52412.69;5073172;28;20681;-80
2023/11/30 02:09:14;;;;;;;5.70;2.53;;;;;;;-145.69;59.18;52396.84;5073128;28;20239;-81
2023/11/30 02:11:40;;;;;;;4.67;2.70;;;;;;;-145.69;59.04;52355.28;5073018;28;20578;-81
2023/11/30 02:14:07;;;;;;;4.00;2.63;;;;;;;-145.69;59.28;52384.97;5073033;28;20225;-81
2023/11/30 02:16:33;;;;;;;5.20;2.50;;;;;;;-145.69;59.08;52412.69;5071441;28;20199;-81
2023/11/30 02:19:00;;;;;;;5.37;2.70;;;;;;;-145.69;59.18;52384.97;5061701;28;20203;-81
2023/11/30 02:21:28;;;;;;;5.33;2.83;;;;;;;-145.69;58.56;52394.88;5079580;28;20207;-81
2023/11/30 02:23:56;;;;;;;3.43;2.50;;;;;;;-145.69;59.03;52390.91;5079677;28;20557;-81
2023/11/30 02:26:22;;;;;;;4.83;2.67;;;;;;;-145.69;59.45;52400.81;5079750;28;20196;-81
2023/11/30 02:28:49;;;;;;;4.90;2.63;;;;;;;-145.69;58.91;52420.63;5079830;28;20218;-80
2023/11/30 02:31:15;;;;;;;5.10;2.43;;;;;;;-145.69;58.81;52408.75;5080042;28;20207;-81
2023/11/30 02:33:42;;;;;;;5.53;3.20;;;;;;;-145.69;58.74;52412.69;5079980;28;20202;-81
2023/11/30 02:36:09;;;;;;;3.93;2.70;;;;;;;-145.69;59.03;52418.63;5079513;28;20305;-81
2023/11/30 02:38:35;;;;;;;3.70;2.57;;;;;;;-145.69;58.73;52375.06;5079640;28;20542;-80
2023/11/30 02:41:04;;;;;;;5.53;3.00;;;;;;;-145.69;58.24;52353.28;5079397;28;20203;-80
2023/11/30 02:43:30;;;;;;;3.47;2.50;;;;;;;-145.69;58.13;52375.06;5079823;28;20198;-80
2023/11/30 02:45:57;;;;;;;5.30;2.47;;;;;;;-145.69;57.39;52398.84;5080022;28;20203;-80
2023/11/30 02:48:23;;;;;;;5.87;3.10;;;;;;;-145.69;57.33;52386.97;5079948;28;20894;-80
2023/11/30 02:50:50;;;;;;;5.07;2.57;;;;;;;-145.69;57.22;52375.06;5079819;28;20561;-81
2023/11/30 02:53:16;;;;;;;4.47;2.63;;;;;;;-145.69;57.14;52381.00;5079439;28;20198;-80
2023/11/30 02:55:43;;;;;;;3.17;2.10;;;;;;;-145.69;57.06;52412.69;5071377;28;20227;-80
2023/11/30 02:58:11;;;;;;;5.57;2.50;;;;;;;-145.69;57.15;52369.13;5059604;28;20211;-81
2023/11/30 03:00:37;;;;;;;4.70;2.60;;;;;;;-145.69;56.88;52414.69;5059663;28;20215;-80
2023/11/30 03:03:03;;;;;;;5.33;2.73;;;;;;;-145.69;56.38;52412.69;5059537;28;20224;-79
2023/11/30 03:05:31;;;;;;;4.87;2.80;;;;;;;-145.69;56.52;52400.81;5059368;28;20202;-80
2023/11/30 03:07:58;;;;;;;5.23;3.00;;;;;;;-145.69;56.20;52365.16;5078830;28;20728;-81
2023/11/30 03:10:24;;;;;;;6.50;3.50;;;;;;;-145.69;56.27;52379.03;5079684;28;20668;-81
2023/11/30 03:12:51;;;;;;;8.13;3.53;;;;;;;-145.69;55.56;52345.38;5079344;28;20554;-80
2023/11/30 03:15:20;;;;;;;7.20;3.57;;;;;;;-145.69;55.55;52373.09;5079286;28;20237;-82
2023/11/30 03:17:46;;;;;;;8.60;3.97;;;;;;;-145.69;55.22;52355.28;5080049;28;20203;-80
2023/11/30 03:20:13;;;;;;;6.20;3.37;;;;;;;-145.69;55.26;52388.94;5069863;28;20191;-80
2023/11/30 03:22:39;;;;;;;6.40;3.87;;;;;;;-145.69;55.11;52383.00;5059712;28;20234;-80
2023/11/30 03:25:07;;;;;;;5.50;3.40;;;;;;;-145.69;55.30;52361.22;5059421;28;20195;-81
2023/11/30 03:27:33;;;;;;;5.63;3.47;;;;;;;-145.69;54.76;52369.13;5057066;28;20215;-80
2023/11/30 03:30:00;;;;;;;6.57;4.07;;;;;;;-145.69;54.71;52349.31;5056162;28;20203;-81
2023/11/30 03:32:28;;;;;;;8.17;4.80;;;;;;;-145.69;55.05;52388.94;5056452;28;20554;-80
2023/11/30 03:34:54;;;;;;;9.30;4.40;;;;;;;-145.69;55.15;52369.13;5056325;28;20226;-80
2023/11/30 03:37:20;;;;;;;7.10;4.07;;;;;;;-145.69;54.91;52357.25;5056035;28;20211;-80
2023/11/30 03:39:47;;;;;;;6.53;3.87;;;;;;;-145.69;55.25;52373.09;5055927;28;20200;-80
2023/11/30 03:42:13;;;;;;;8.17;4.30;;;;;;;-145.69;55.51;52390.91;5071987;28;20212;-80
2023/11/30 03:44:40;;;;;;;6.30;4.23;;;;;;;-145.69;55.26;52381.00;5075958;28;20198;-80
2023/11/30 03:47:06;;;;;;;8.40;4.97;;;;;;;-145.69;54.78;52369.13;5075586;28;20202;-81
2023/11/30 03:49:34;;;;;;;7.97;4.37;;;;;;;-145.69;54.87;52369.13;5075522;28;20595;-81
2023/11/30 03:52:01;;;;;;;9.40;5.00;;;;;;;-145.69;54.51;52343.38;5075616;28;20206;-81
2023/11/30 03:54:27;;;;;;;10.67;4.80;;;;;;;-145.69;54.31;52377.06;5075612;28;20569;-80
2023/11/30 03:56:54;;;;;;;7.80;4.17;;;;;;;-145.69;54.13;52392.91;5075196;28;20237;-80
2023/11/30 03:59:20;;;;;;;7.10;4.40;;;;;;;-145.69;53.91;52357.25;5075549;28;20222;-81
2023/11/30 04:01:46;;;;;;;8.77;4.30;;;;;;;-145.69;53.18;52414.69;5076005;28;20198;-81
2023/11/30 04:04:13;;;;;;;9.23;4.13;;;;;;;-145.69;53.28;52369.13;5081398;28;20210;-81
2023/11/30 04:06:41;;;;;;;6.50;4.03;;;;;;;-145.69;52.73;52363.19;5080754;28;20199;-80
2023/11/30 04:09:08;;;;;;;7.60;4.17;;;;;;;-145.69;52.43;52369.13;5080597;28;20238;-81
2023/11/30 04:11:35;;;;;;;8.60;4.47;;;;;;;-145.69;52.13;52377.06;5080193;28;20202;-81
2023/11/30 04:14:05;;;;;;;10.40;5.27;;;;;;;-145.69;52.00;52369.13;5077895;28;20210;-80
2023/11/30 04:16:31;;;;;;;9.93;4.87;;;;;;;-145.69;51.49;52369.13;5077961;28;20296;-80
2023/11/30 04:18:58;;;;;;;9.20;5.20;;;;;;;-145.69;51.79;52381.00;5076819;28;20198;-81
2023/11/30 04:21:25;;;;;;;12.40;5.73;;;;;;;-145.69;51.85;52384.97;5076366;28;20207;-80
2023/11/30 04:23:53;;;;;;;11.13;5.93;;;;;;;-145.69;52.21;52349.31;5076525;28;20194;-81
2023/11/30 04:26:19;;;;;;;12.83;6.27;;;;;;;-145.69;51.95;52349.31;5075055;28;20195;-81
2023/11/30 04:28:46;;;;;;;12.97;6.73;;;;;;;-145.69;52.17;52381.00;5075260;28;20206;-80
2023/11/30 04:31:13;;;;;;;17.57;7.30;;;;;;;-145.69;52.13;52367.16;5074656;28;20638;-80
2023/11/30 04:33:40;;;;;;;13.00;7.13;;;;;;;-145.69;52.16;52377.06;5074872;28;20211;-80
2023/11/30 04:36:07;;;;;;;13.43;6.97;;;;;;;-145.69;52.08;52329.53;5074740;28;20266;-81
2023/11/30 04:38:33;;;;;;;16.37;8.47;;;;;;;-145.69;51.81;52392.91;5073751;28;20210;-81
2023/11/30 04:41:01;;;;;;;12.37;7.23;;;;;;;-145.69;51.73;52398.84;5073347;28;20217;-81
2023/11/30 04:43:28;;;;;;;17.23;8.30;;;;;;;-145.69;51.91;52377.06;5074727;28;20206;-81
2023/11/30 04:45:54;;;;;;;16.13;8.53;;;;;;;-145.69;51.81;52331.50;5076069;28;20206;-80
2023/11/30 04:48:21;;;;;;;20.17;8.80;;;;;;;-145.69;51.86;52359.22;5075554;28;20198;-81
2023/11/30 04:50:47;;;;;;;15.63;8.70;;;;;;;-145.69;51.56;52353.28;5075141;28;20281;-81
2023/11/30 04:53:13;;;;;;;17.10;8.43;;;;;;;-145.69;51.67;52359.22;5063221;28;20216;-80
2023/11/30 04:55:40;;;;;;;18.80;8.53;;;;;;;-145.69;52.26;52361.22;5053974;28;20237;-80
2023/11/30 04:58:08;;;;;;;19.57;8.90;;;;;;;-145.69;52.34;52365.16;5054285;28;20207;-80
2023/11/30 05:00:34;;;;;;;16.57;8.23;;;;;;;-145.69;52.34;52384.97;5054068;28;20203;-80
2023/11/30 05:03:01;;;;;;;16.97;8.33;;;;;;;-145.69;52.33;52379.03;5054350;28;20211;-80
2023/11/30 05:05:27;;;;;;;14.77;7.93;;;;;;;-145.69;52.35;52341.41;5053972;28;20203;-80
2023/11/30 05:07:54;;;;;;;15.07;8.00;;;;;;;-145.69;52.19;52394.88;5053706;28;20741;-80
2023/11/30 05:10:20;;;;;;;16.30;8.60;;;;;;;-145.69;52.05;52361.22;5056529;28;20204;-81
2023/11/30 05:12:47;;;;;;;13.13;7.53;;;;;;;-145.69;52.04;52339.44;5070237;28;20203;-80
2023/11/30 05:15:14;;;;;;;14.97;7.53;;;;;;;-145.69;52.39;52341.41;5073634;28;20217;-80
2023/11/30 05:17:41;;;;;;;14.60;7.30;;;;;;;-145.69;52.11;52357.25;5073820;28;20207;-80
2023/11/30 05:20:08;;;;;;;13.00;7.80;;;;;;;-145.69;52.33;52377.06;5073725;28;20231;-81
2023/11/30 05:22:35;;;;;;;16.13;7.83;;;;;;;-145.69;52.39;52345.38;5073340;28;20195;-80
2023/11/30 05:25:02;;;;;;;9.13;5.43;;;;;;;-145.69;52.14;52363.19;5073460;28;20194;-80
2023/11/30 05:27:28;;;;;;;13.70;5.10;;;;;;;-145.69;52.40;52365.16;5073728;28;20210;-80
2023/11/30 05:29:55;;;;;;;8.07;4.63;;;;;;;-145.69;52.05;52351.31;5073604;28;20210;-80
2023/11/30 05:32:23;;;;;;;8.70;4.77;;;;;;;-145.69;52.56;52377.06;5073360;28;20206;-80
2023/11/30 05:34:51;;;;;;;12.03;5.80;;;;;;;-145.69;52.52;52373.09;5074083;28;20211;-81
2023/11/30 05:37:18;;;;;;;10.60;5.63;;;;;;;-145.69;53.00;52357.25;5074025;28;20226;-81
2023/11/30 05:39:44;;;;;;;9.23;5.20;;;;;;;-145.69;53.07;52345.38;5074349;28;20206;-80
2023/11/30 05:42:11;;;;;;;10.87;5.07;;;;;;;-145.69;52.83;52365.16;5073110;28;20202;-81
2023/11/30 05:44:37;;;;;;;10.37;4.57;;;;;;;-145.69;53.35;52361.22;5073346;28;20206;-81
2023/11/30 05:47:05;;;;;;;6.80;3.70;;;;;;;-145.69;53.38;52383.00;5073433;28;20198;-80
2023/11/30 05:49:32;;;;;;;8.93;4.20;;;;;;;-145.69;53.27;52384.97;5073444;28;20206;-80
2023/11/30 05:51:59;;;;;;;9.67;4.03;;;;;;;-145.69;53.53;52353.28;5073598;28;20206;-81
2023/11/30 05:54:25;;;;;;;7.63;4.07;;;;;;;-145.69;53.46;52365.16;5073660;28;20811;-80
2023/11/30 05:56:52;;;;;;;7.40;4.10;;;;;;;-145.69;53.09;52327.53;5073551;28;20230;-81
2023/11/30 05:59:18;;;;;;;7.07;3.67;;;;;;;-145.69;53.55;52335.47;5073272;28;20198;-81
2023/11/30 06:01:45;;;;;;;8.17;3.90;;;;;;;-145.69;53.45;52384.97;5073095;28;20208;-80
2023/11/30 06:04:12;;;;;;;6.87;3.73;;;;;;;-145.69;53.20;52345.38;5073263;28;20206;-81
2023/11/30 06:06:41;;;;;;;8.70;4.27;;;;;;;-145.69;53.17;52325.56;5072971;28;20198;-80
2023/11/30 06:09:07;;;;;;;11.20;5.40;;;;;;;-145.69;53.20;52357.25;5072592;28;20570;-81
2023/11/30 06:11:35;;;;;;;8.50;4.70;;;;;;;-145.69;53.28;52375.06;5072784;28;20280;-81
2023/11/30 06:14:01;;;;;;;9.20;4.37;;;;;;;-145.69;53.07;52363.19;5073086;28;20369;-81
2023/11/30 06:16:27;;;;;;;10.73;4.30;;;;;;;-145.69;53.42;52369.13;5072744;28;20589;-81
2023/11/30 06:18:54;;;;;;;7.57;4.67;;;;;;;-145.69;53.38;52361.22;5073281;28;20216;-81
2023/11/30 06:21:20;;;;;;;9.70;4.20;;;;;;;-145.69;53.67;52349.31;5073098;28;20214;-81
2023/11/30 06:23:48;;;;;;;7.90;4.73;;;;;;;-145.69;53.49;52377.06;5072866;28;20205;-81
2023/11/30 06:26:15;;;;;;;10.70;4.77;;;;;;;-145.69;53.03;52347.34;5073098;28;20206;-81
2023/11/30 06:28:41;;;;;;;10.30;4.87;;;;;;;-145.69;53.11;52416.66;5072872;28;20659;-81
2023/11/30 06:31:08;;;;;;;8.90;4.90;;;;;;;-145.69;53.05;52355.28;5072949;28;20203;-81
2023/11/30 06:33:35;;;;;;;8.40;4.93;;;;;;;-145.69;53.14;52367.16;5072857;28;20213;-81
2023/11/30 06:36:03;;;;;;;18.63;10.47;;;;;;;-145.69;53.09;52357.25;5072742;28;20602;-81
2023/11/30 06:38:30;;;;;;;11.00;6.30;;;;;;;-145.69;52.46;52400.81;5072943;28;20206;-80
2023/11/30 06:40:58;;;;;;;12.87;6.47;;;;;;;-145.69;53.11;52357.25;5071381;28;20233;-80
2023/11/30 06:43:26;;;;;;;12.47;8.07;;;;;;;-145.69;53.11;52373.09;5070519;28;20194;-80
2023/11/30 06:45:52;;;;;;;10.57;5.63;;;;;;;-145.69;53.49;52367.16;5072587;28;20672;-80
2023/11/30 06:48:21;;;;;;;12.47;5.93;;;;;;;-145.69;53.32;52333.47;5072266;28;20292;-80
2023/11/30 06:50:47;;;;;;;15.63;6.90;;;;;;;-145.69;52.95;52341.41;5072668;28;20211;-80
2023/11/30 06:53:14;;;;;;;12.83;5.63;;;;;;;-145.69;53.23;52345.38;5072561;28;20210;-80
2023/11/30 06:55:40;;;;;;;13.50;6.50;;;;;;;-145.69;53.38;52371.13;5072453;28;20206;-80
2023/11/30 06:58:08;;;;;;;12.73;6.07;;;;;;;-145.69;53.83;52327.53;5072285;28;20657;-80
2023/11/30 07:00:35;;;;;;;13.47;6.60;;;;;;;-145.69;54.43;52367.16;5072726;28;20206;-80
2023/11/30 07:03:01;;;;;;;11.83;5.53;;;;;;;-145.69;53.95;52384.97;5074463;28;20272;-80
2023/11/30 07:05:28;;;;;;;15.37;6.00;;;;;;;-145.69;53.98;52365.16;5076101;28;20201;-80
2023/11/30 07:07:54;;;;;;;12.23;5.83;;;;;;;-145.69;54.03;52361.22;5076042;28;20246;-80
2023/11/30 07:10:21;;;;;;;11.87;6.00;;;;;;;-145.69;54.21;52345.38;5076192;28;20195;-81
2023/11/30 07:12:47;;;;;;;11.70;6.03;;;;;;;-145.69;53.94;52373.09;5059408;28;20195;-80
2023/11/30 07:15:15;;;;;;;8.93;4.70;;;;;;;-145.69;54.12;52337.44;5058127;28;20210;-80
2023/11/30 07:17:41;;;;;;;11.90;5.60;;;;;;;-145.69;54.28;52339.44;5055765;28;20234;-80
2023/11/30 07:20:09;;;;;;;10.40;5.30;;;;;;;-145.69;54.00;52325.56;5055872;28;20655;-80
2023/11/30 07:22:35;;;;;;;11.40;4.67;;;;;;;-145.69;54.50;52329.53;5055313;28;20210;-80
2023/11/30 07:25:03;;;;;;;10.57;4.37;;;;;;;-145.69;54.58;52343.38;5055846;28;20200;-81
2023/11/30 07:27:30;;;;;;;9.20;5.17;;;;;;;-145.69;54.44;52367.16;5055916;28;20200;-80
2023/11/30 07:29:56;;;;;;;8.07;4.87;;;;;;;-145.69;54.11;52373.09;5055704;28;20199;-80
2023/11/30 07:32:24;;;;;;;8.03;4.33;;;;;;;-145.69;54.18;52367.16;5055729;28;20203;-80
2023/11/30 07:34:50;;;;;;;8.53;4.87;;;;;;;-145.69;54.09;52377.06;5055571;28;20203;-80
2023/11/30 07:37:18;;;;;;;7.90;4.60;;;;;;;-145.69;54.46;52369.13;5055675;28;20231;-80
2023/11/30 07:39:44;;;;;;;7.80;4.43;;;;;;;-145.69;54.51;52365.16;5055420;28;20744;-80
2023/11/30 07:42:11;;;;;;;10.40;4.80;;;;;;;-145.69;54.18;52343.38;5067021;28;20187;-80
2023/11/30 07:44:37;;;;;;;8.90;4.47;;;;;;;-145.69;54.38;52357.25;5075457;28;20286;-80
2023/11/30 07:47:05;;;;;;;8.67;4.33;;;;;;;-145.69;54.71;52317.66;5075251;28;20207;-80
2023/11/30 07:49:32;;;;;;;7.47;4.53;;;;;;;-145.69;54.45;52357.25;5075531;28;20206;-80
2023/11/30 07:51:59;;;;;;;10.50;4.40;;;;;;;-145.69;54.63;52369.13;5075451;28;20207;-80
2023/11/30 07:54:26;;;;;;;7.33;4.17;;;;;;;-145.69;54.19;52353.28;5075012;28;20202;-80
2023/11/30 07:56:53;;;;;;;9.63;4.27;;;;;;;-145.69;54.44;52345.38;5075049;28;20254;-80
2023/11/30 07:59:19;;;;;;;9.03;4.47;;;;;;;-145.69;54.59;52365.16;5075045;28;20210;-81
2023/11/30 08:01:46;;;;;;;5.97;3.27;;;;;;;-145.69;54.94;52329.53;5075281;28;20203;-80
2023/11/30 08:04:12;;;;;;;7.13;3.63;;;;;;;-145.69;54.95;52355.28;5075161;28;20203;-80
2023/11/30 08:06:40;;;;;;;6.57;3.20;;;;;;;-145.69;55.15;52365.16;5075122;28;20203;-80
2023/11/30 08:09:08;;;;;;;5.80;3.30;;;;;;;-145.69;55.17;52333.47;5074671;28;20226;-80
2023/11/30 08:11:34;;;;;;;8.63;3.70;;;;;;;-145.69;55.09;52353.28;5074661;28;20194;-80
2023/11/30 08:14:01;;;;;;;6.10;3.50;;;;;;;-145.69;54.91;52337.44;5074470;28;20276;-80
2023/11/30 08:16:28;;;;;;;4.70;2.23;;;;;;;-145.69;55.31;52367.16;5074589;28;20318;-79
2023/11/30 08:18:54;;;;;;;4.50;2.80;;;;;;;-145.69;55.00;52321.59;5074990;28;20210;-80
2023/11/30 08:21:21;;;;;;;6.27;3.03;;;;;;;-145.69;54.77;52329.53;5074804;28;20199;-80
2023/11/30 08:23:49;;;;;;;5.40;3.27;;;;;;;-145.69;55.11;52347.34;5074701;28;20241;-80
2023/11/30 08:26:16;;;;;;;5.20;2.83;;;;;;;-145.69;54.81;52329.53;5074822;28;20233;-80
2023/11/30 08:28:43;;;;;;;6.53;3.47;;;;;;;-145.69;55.11;52325.56;5074510;28;20203;-79
2023/11/30 08:31:10;;;;;;;7.20;3.37;;;;;;;-145.69;55.43;52347.34;5074745;28;20203;-79
2023/11/30 08:33:36;;;;;;;6.80;3.70;;;;;;;-145.69;55.42;52357.25;5074345;28;20557;-79
2023/11/30 08:36:04;;;;;;;6.23;3.20;;;;;;;-145.69;55.97;52361.22;5074520;28;20201;-79
2023/11/30 08:38:31;;;;;;;5.60;3.03;;;;;;;-145.69;56.15;52337.44;5074416;28;20238;-79
2023/11/30 08:40:59;;;;;;;5.63;2.67;;;;;;;-145.69;55.75;52345.38;5073833;28;20199;-80
2023/11/30 08:43:26;;;;;;;8.07;3.23;;;;;;;-145.69;55.84;52367.16;5074262;28;20203;-80
2023/11/30 08:45:52;;;;;;;6.00;3.20;;;;;;;-145.69;55.97;52353.28;5074226;28;20206;-80
2023/11/30 08:48:19;;;;;;;5.07;2.63;;;;;;;-145.69;55.50;52349.31;5074213;28;20209;-80
2023/11/30 08:50:45;;;;;;;4.77;2.70;;;;;;;-145.69;55.83;52329.53;5074169;28;20211;-80
2023/11/30 08:53:15;;;;;;;5.97;4.30;;;;;;;-145.69;55.92;52333.47;5074156;28;20205;-80
2023/11/30 08:55:44;;;;;;;3.83;2.80;;;;;;;-145.69;55.24;52361.22;5071816;28;20286;-80
2023/11/30 08:58:12;;;;;;;3.73;2.33;;;;;;;-145.69;55.57;52323.59;5073643;28;20804;-80
2023/11/30 09:00:44;;;;;;;6.30;2.47;;;;;;;-145.69;55.42;52333.47;5073924;28;20202;-80
2023/11/30 09:03:16;;;;;;;4.10;2.70;;;;;;;-145.69;55.68;52323.59;5074047;28;20199;-80
2023/11/30 09:05:44;;;;;;;3.57;2.33;;;;;;;-145.69;55.86;52335.47;5073978;28;20207;-80
2023/11/30 09:08:19;;;;;;;5.77;2.50;;;;;;;-145.69;55.70;52329.53;5073195;28;20234;-80
2023/11/30 09:10:56;;;;;;;5.20;2.47;;;;;;;-145.69;56.06;52341.41;5073962;28;20638;-80
2023/11/30 09:13:27;;;;;;;3.83;2.03;;;;;;;-145.69;55.84;52331.50;5072105;28;20194;-80
2023/11/30 09:15:55;;;;;;;4.13;2.03;;;;;;;-145.69;55.79;52353.28;5068869;28;20199;-80
2023/11/30 09:18:28;;;;;;;4.13;2.07;;;;;;;-145.69;56.06;52353.28;5073083;28;20238;-80
2023/11/30 09:21:00;;;;;;;3.67;1.90;;;;;;;-145.69;56.01;52325.56;5070210;28;20383;-80
2023/11/30 09:23:29;;;;;;;3.67;1.83;;;;;;;-145.69;55.79;52355.28;5073247;28;20206;-80
2023/11/30 09:25:56;;;;;;;2.60;1.73;;;;;;;-145.69;55.63;52321.59;5072964;28;20285;-80
2023/11/30 09:28:28;;;;;;;2.67;1.50;;;;;;;-145.69;55.62;52345.38;5073442;28;20539;-79
2023/11/30 09:30:55;;;;;;;4.00;2.23;;;;;;;-145.69;56.22;52345.38;5073568;28;20202;-80
2023/11/30 09:33:24;;;;;;;3.33;2.10;;;;;;;-145.69;55.94;52361.22;5073099;28;20649;-80
2023/11/30 09:35:50;;;;;;;3.63;2.00;;;;;;;-145.69;55.60;52343.38;5073552;28;20199;-80
2023/11/30 09:38:17;;;;;;;1.90;1.70;;;;;;;-145.69;56.12;52337.44;5073417;28;20233;-80
2023/11/30 09:40:44;;;;;;;3.33;1.67;;;;;;;-145.69;55.97;52353.28;5073034;28;20213;-81
2023/11/30 09:43:10;;;;;;;2.20;1.30;;;;;;;-145.69;55.40;52339.44;5072803;28;20207;-81
2023/11/30 09:45:39;;;;;;;2.30;1.50;;;;;;;-145.69;55.43;52349.31;5073189;28;20195;-81
2023/11/30 09:48:05;;;;;;;2.50;1.53;;;;;;;-145.69;54.98;52345.38;5073151;28;20688;-81
2023/11/30 09:50:32;;;;;;;3.07;1.70;;;;;;;-145.69;54.83;52327.53;5073057;28;20203;-80
2023/11/30 09:52:58;;;;;;;3.27;1.60;;;;;;;-145.69;55.12;52335.47;5073232;28;20209;-80
2023/11/30 09:55:27;;;;;;;1.97;1.10;;;;;;;-145.69;55.04;52309.72;5071008;28;20212;-80
2023/11/30 09:57:53;;;;;;;2.43;1.50;;;;;;;-145.69;55.05;52357.25;5058151;28;20234;-80
2023/11/30 10:00:21;;;;;;;2.27;1.40;;;;;;;-145.69;55.19;52333.47;5064672;28;20213;-81
2023/11/30 10:02:53;;;;;;;1.73;1.33;;;;;;;-145.69;54.71;52317.66;5053135;28;20833;-80
2023/11/30 10:05:19;;;;;;;2.53;1.47;;;;;;;-145.69;54.23;52303.78;5052994;28;20199;-80
2023/11/30 10:07:46;;;;;;;1.43;1.10;;;;;;;-145.69;53.45;52329.53;5052638;28;20308;-80
2023/11/30 10:10:14;;;;;;;2.20;1.37;;;;;;;-145.69;53.96;52313.69;5052814;28;20207;-80
2023/11/30 10:12:40;;;;;;;1.33;1.10;;;;;;;-145.69;53.97;52323.59;5052922;28;20203;-79
2023/11/30 10:15:09;;;;;;;1.30;1.20;;;;;;;-145.69;53.75;52335.47;5061116;28;20565;-80
2023/11/30 10:17:36;;;;;;;4.53;1.20;;;;;;;-145.69;54.11;52341.41;5072425;28;20639;-80
2023/11/30 10:20:05;;;;;;;1.43;0.90;;;;;;;-145.69;53.78;52297.84;5072737;28;20445;-80
2023/11/30 10:22:32;;;;;;;1.80;1.10;;;;;;;-145.69;53.60;52321.59;5072815;28;20206;-80
2023/11/30 10:24:59;;;;;;;0.70;0.70;;;;;;;-145.69;53.65;52349.31;5071964;28;20202;-80
2023/11/30 10:27:28;;;;;;;2.83;1.00;;;;;;;-145.69;53.22;52321.59;5072657;28;20561;-80
2023/11/30 10:30:01;;;;;;;1.07;0.80;;;;;;;-145.69;52.74;52347.34;5072249;28;20584;-80
2023/11/30 10:32:27;;;;;;;1.27;0.93;;;;;;;-145.69;52.78;52347.34;5072604;28;20581;-80
2023/11/30 10:34:57;;;;;;;2.80;2.07;;;;;;;-145.69;53.30;52333.47;5072607;28;20206;-80
2023/11/30 10:37:27;;;;;;;1.90;1.67;;;;;;;-145.69;53.47;52309.72;5075224;28;20703;-80
2023/11/30 10:40:03;;;;;;;1.40;1.10;;;;;;;-145.69;52.80;52319.63;5076546;28;20207;-80
2023/11/30 10:42:33;;;;;;;2.23;1.57;;;;;;;-145.69;52.61;52341.41;5076785;28;20198;-81
2023/11/30 10:45:02;;;;;;;3.27;1.93;;;;;;;-145.69;53.04;52349.31;5076662;28;20199;-80
2023/11/30 10:47:29;;;;;;;4.67;2.00;;;;;;;-145.69;52.54;52327.53;5076675;28;20297;-80
2023/11/30 10:49:59;;;;;;;3.10;1.80;;;;;;;-145.69;52.73;52299.81;5076660;28;20203;-80
2023/11/30 10:52:28;;;;;;;3.17;1.47;;;;;;;-145.69;52.47;52325.56;5076743;28;20233;-80
2023/11/30 10:55:06;;;;;;;2.43;1.60;;;;;;;-145.69;51.62;52309.72;5076438;28;20626;-80
2023/11/30 10:57:33;;;;;;;2.17;1.50;;;;;;;-145.69;52.38;52327.53;5076320;28;20237;-80
2023/11/30 11:00:01;;;;;;;2.60;1.27;;;;;;;-145.69;52.41;52323.59;5074577;28;20202;-80
2023/11/30 11:02:36;;;;;;;2.43;1.40;;;;;;;-145.69;52.17;52335.47;5076196;28;20199;-80
2023/11/30 11:05:03;;;;;;;1.83;1.10;;;;;;;-145.69;52.49;52317.66;5076038;28;20202;-80
2023/11/30 11:07:31;;;;;;;1.47;0.77;;;;;;;-145.69;52.62;52305.75;5054544;28;20253;-80
2023/11/30 11:09:57;;;;;;;1.77;1.10;;;;;;;-145.69;52.59;52301.81;5062895;28;20195;-80
2023/11/30 11:12:25;;;;;;;3.17;1.17;;;;;;;-145.69;52.49;52285.97;5075861;28;20646;-80
2023/11/30 11:15:06;;;;;;;2.40;1.00;;;;;;;-145.69;52.21;52305.75;5075928;28;20199;-80